Nearby METAR Reports

 

KMTN - Baltimore/Martin, Maryland, USA
Distance from station: SSE 8mi, 13km
Updated: Mon, 25-May-2015 4:50pm EDT
Partly cloudy
Partly cloudy
 Wind from SSE
Wind: SSE 18 mph , 30 km/h, Gust: 26 mph , 43 km/h
Temperature: 81°F , 27°C
Heat Index: 83°F , 28°C
Dew Point: 64°F , 18°C
Humidity: 58%
Barometer: 30.22 inHg , 1023.4 hPa
Clouds: Partly cloudy
Visibility: 10 miles , 16 km
Cloud details: Partly cloudy 10000 ft
2015/05/25 20:50 KMTN 252050Z 16016G23KT 10SM SCT100 27/18 A3022
KDMH - Baltimore/Dwntwn, Maryland, USA
Distance from station: SW 12mi, 19km
Updated: Mon, 25-May-2015 4:54pm EDT

 
Temperature: 84°F , 29°C
Heat Index: 83°F , 28°C
Dew Point: 57°F , 14°C
Humidity: 40%
Barometer: 30.20 inHg , 1022.7 hPa
2015/05/25 20:54 KDMH 252054Z AUTO 29/14 A3020 RMK AO1 SLP225 T02890139 56006
 
KBWI - Balto/Wash Intl, Maryland, USA
Distance from station: SSW 20mi, 33km
Updated: Mon, 25-May-2015 4:54pm EDT
Mostly cloudy
Mostly cloudy
 Wind from SSW
Wind: SSW 10 mph , 17 km/h
Temperature: 82°F , 28°C
Heat Index: 82°F , 28°C
Dew Point: 57°F , 14°C
Humidity: 42%
Barometer: 30.19 inHg , 1022.4 hPa
Clouds: Mostly cloudy
Visibility: 10 miles , 16 km
Cloud details: Partly cloudy 6000 ft
Mostly cloudy 25000 ft
2015/05/25 20:54 KBWI 252054Z 20009KT 10SM SCT060 BKN250 28/14 A3019 RMK AO2 SLP223 T02830144 56008
KDMW - Carroll Cnty, Maryland, USA
Distance from station: WNW 30mi, 48km
Updated: Mon, 25-May-2015 5:10pm EDT
Clear
Clear
 Wind from S
Wind: S 13 mph , 20 km/h, Gust: 21 mph , 33 km/h
Temperature: 86°F , 30°C
Heat Index: 85°F , 29°C
Dew Point: 59°F , 15°C
Humidity: 40%
Barometer: 30.20 inHg , 1022.7 hPa
Clouds: Clear
Visibility: 10 miles , 16 km
2015/05/25 21:10 KDMW 252110Z AUTO 18011G18KT 10SM CLR 30/15 A3020 RMK AO2
 
KNAK - Annapolis/Naval, Maryland, USA
Distance from station: S 30mi, 48km
Updated: Mon, 25-May-2015 4:54pm EDT
Clear
Clear
 Wind from SSE
Wind: SSE 21 mph , 33 km/h, Gust: 25 mph , 41 km/h
Temperature: 77°F , 25°C
Dew Point: 61°F , 16°C
Humidity: 57%
Barometer: 30.22 inHg , 1023.4 hPa
Clouds: Clear
Visibility: 10 miles , 16 km
2015/05/25 20:54 KNAK 252054Z AUTO 16018G22KT 10SM CLR 25/16 A3022 RMK AO2 SLP233 T02500161 56006
KW29 - Stevensville, Maryland, USA
Distance from station: SSE 31mi, 50km
Updated: Mon, 25-May-2015 5:10pm EDT

 Wind from S
Wind: S 12 mph , 19 km/h, Gust: 21 mph , 33 km/h
Barometer: 30.22 inHg , 1023.4 hPa
Visibility: 10 miles , 16 km
2015/05/25 21:10 KW29 252110Z AUTO 17010G18KT 10SM A3022 RMK AO1
 
KCGS - College Park, Maryland, USA
Distance from station: SW 38mi, 61km
Updated: Mon, 25-May-2015 5:10pm EDT
Clear
Clear
 Wind from S
Wind: S 9 mph , 15 km/h, Gust: 20 mph , 31 km/h
Temperature: 82°F , 28°C
Heat Index: 81°F , 27°C
Dew Point: 55°F , 13°C
Humidity: 40%
Barometer: 30.20 inHg , 1022.7 hPa
Clouds: Clear
Visibility: 10 miles , 16 km
2015/05/25 21:10 KCGS 252110Z AUTO 18008G17KT 10SM CLR 28/13 A3020 RMK AO1
KGAI - Gaithersburg, Maryland, USA
Distance from station: WSW 40mi, 65km
Updated: Mon, 25-May-2015 5:15pm EDT
Clear
Clear
 Wind from S
Wind: S 9 mph , 15 km/h, Gust: 17 mph , 28 km/h
Temperature: 81°F , 27°C
Heat Index: 81°F , 27°C
Dew Point: 57°F , 14°C
Humidity: 45%
Barometer: 30.24 inHg , 1024 hPa
Clouds: Clear
Visibility: 10 miles , 16 km
2015/05/25 21:15 KGAI 252115Z AUTO 19008G15KT 130V200 10SM CLR 27/14 A3024 RMK AO1
 
KTHV - York, Pennsylvania, USA
Distance from station: NNW 40mi, 65km
Updated: Mon, 25-May-2015 4:53pm EDT
Clear
Clear
 Wind from SSW
Wind: SSW 9 mph , 15 km/h, Gust: 21 mph , 33 km/h
Temperature: 82°F , 28°C
Heat Index: 82°F , 28°C
Dew Point: 59°F , 15°C
Humidity: 45%
Barometer: 30.17 inHg , 1021.7 hPa
Clouds: Clear
Visibility: 10 miles , 16 km
2015/05/25 20:53 KTHV 252053Z AUTO 20008G18KT 170V230 10SM CLR 28/15 A3017 RMK AO2 SLP215 T02780150 56008
KFDK - Frederick, Maryland, USA
Distance from station: W 47mi, 75km
Updated: Mon, 25-May-2015 3:47pm EDT
NOT Current
Partly cloudy
Partly cloudy
 Wind from SW
Wind: SW 13 mph , 20 km/h
Temperature: 84°F , 29°C
Heat Index: 84°F , 29°C
Dew Point: 61°F , 16°C
Humidity: 45%
Barometer: 30.21 inHg , 1023 hPa
Clouds: Partly cloudy
Visibility: 10 miles , 16 km
Cloud details: Partly cloudy 5500 ft
2015/05/25 19:47 KFDK 251947Z 22011KT 10SM SCT055 29/16 A3021
 
KESN - Easton/Newnam, Maryland, USA
Distance from station: SSE 48mi, 78km
Updated: Mon, 25-May-2015 4:50pm EDT
Partly cloudy
Partly cloudy
 Wind from S
Wind: S 16 mph , 26 km/h, Gust: 23 mph , 37 km/h
Temperature: 81°F , 27°C
Heat Index: 82°F , 28°C
Dew Point: 63°F , 17°C
Humidity: 54%
Barometer: 30.28 inHg , 1025.4 hPa
Clouds: Partly cloudy
Visibility: 10 miles , 16 km
Cloud details: Partly cloudy 5000 ft
2015/05/25 20:50 KESN 252050Z 18014G20KT 10SM SCT050 27/17 A3028
KDCA - Washington/Natl, Washington D.c., USA
Distance from station: SW 49mi, 79km
Updated: Mon, 25-May-2015 4:52pm EDT
Mostly cloudy
Mostly cloudy
 Wind from S
Wind: S 17 mph , 28 km/h, Gust: 24 mph , 39 km/h
Temperature: 84°F , 29°C
Heat Index: 84°F , 29°C
Dew Point: 59°F , 15°C
Humidity: 43%
Barometer: 30.21 inHg , 1023 hPa
Clouds: Mostly cloudy
Visibility: 10 miles , 16 km
Cloud details: Partly cloudy 5500 ft
Mostly cloudy 25000 ft
2015/05/25 20:52 KDCA 252052Z 19015G21KT 10SM SCT055 BKN250 29/15 A3021 RMK AO2 SLP229 T02940150 56010 $
 
KLNS - Lancaster, Pennsylvania, USA
Distance from station: N 49mi, 79km
Updated: Mon, 25-May-2015 4:53pm EDT
Few Clouds
Few Clouds
 Wind from S
Wind: S 17 mph , 28 km/h, Gust: 23 mph , 37 km/h
Temperature: 82°F , 28°C
Heat Index: 82°F , 28°C
Dew Point: 59°F , 15°C
Humidity: 45%
Barometer: 30.17 inHg , 1021.7 hPa
Clouds: Few Clouds
Visibility: 10 miles , 16 km
Cloud details: Few Clouds 6000 ft
2015/05/25 20:53 KLNS 252053Z 19015G20KT 10SM FEW060 28/15 A3017 RMK AO2 SLP213 T02780150 56008
KILG - Wilmington, Delaware, USA
Distance from station: ENE 50mi, 81km
Updated: Mon, 25-May-2015 4:51pm EDT
Partly cloudy
Partly cloudy
 Wind from SW
Wind: SW 17 mph , 28 km/h, Gust: 26 mph , 43 km/h
Temperature: 82°F , 28°C
Heat Index: 82°F , 28°C
Dew Point: 57°F , 14°C
Humidity: 42%
Barometer: 30.21 inHg , 1023 hPa
Clouds: Partly cloudy
Visibility: 10 miles , 16 km
Cloud details: Partly cloudy 5500 ft
2015/05/25 20:51 KILG 252051Z 22015G23KT 10SM SCT055 28/14 A3021 RMK AO2 SLP231 T02780144 55006